sensor_id;sensor_type;location;lat;lon;timestamp;P1;durP1;ratioP1;P2;durP2;ratioP2
11305;SDS011;5708;50.660;6.778;2023-04-24T00:01:49;5.80;;;2.40;;
11305;SDS011;5708;50.660;6.778;2023-04-24T00:04:15;10.07;;;2.95;;
11305;SDS011;5708;50.660;6.778;2023-04-24T00:06:42;7.53;;;2.72;;
11305;SDS011;5708;50.660;6.778;2023-04-24T00:09:08;8.50;;;2.90;;
11305;SDS011;5708;50.660;6.778;2023-04-24T00:11:35;5.97;;;2.38;;
11305;SDS011;5708;50.660;6.778;2023-04-24T00:14:00;7.55;;;2.20;;
11305;SDS011;5708;50.660;6.778;2023-04-24T00:16:26;3.78;;;1.42;;
11305;SDS011;5708;50.660;6.778;2023-04-24T00:18:51;3.28;;;1.10;;
11305;SDS011;5708;50.660;6.778;2023-04-24T00:21:21;2.58;;;0.93;;
11305;SDS011;5708;50.660;6.778;2023-04-24T00:23:46;1.63;;;0.70;;
11305;SDS011;5708;50.660;6.778;2023-04-24T00:26:12;2.13;;;0.88;;
11305;SDS011;5708;50.660;6.778;2023-04-24T00:28:37;1.70;;;0.70;;
11305;SDS011;5708;50.660;6.778;2023-04-24T00:31:03;1.83;;;0.73;;
11305;SDS011;5708;50.660;6.778;2023-04-24T00:33:28;1.00;;;0.65;;
11305;SDS011;5708;50.660;6.778;2023-04-24T00:35:53;4.07;;;1.00;;
11305;SDS011;5708;50.660;6.778;2023-04-24T00:38:19;2.50;;;1.02;;
11305;SDS011;5708;50.660;6.778;2023-04-24T00:40:44;1.40;;;0.82;;
11305;SDS011;5708;50.660;6.778;2023-04-24T00:43:10;3.92;;;1.10;;
11305;SDS011;5708;50.660;6.778;2023-04-24T00:45:36;1.95;;;0.95;;
11305;SDS011;5708;50.660;6.778;2023-04-24T00:48:02;3.35;;;0.95;;
11305;SDS011;5708;50.660;6.778;2023-04-24T00:50:28;1.63;;;0.98;;
11305;SDS011;5708;50.660;6.778;2023-04-24T00:52:54;2.67;;;1.10;;
11305;SDS011;5708;50.660;6.778;2023-04-24T00:55:19;5.10;;;1.33;;
11305;SDS011;5708;50.660;6.778;2023-04-24T00:57:45;2.88;;;1.30;;
11305;SDS011;5708;50.660;6.778;2023-04-24T01:00:11;2.63;;;1.40;;
11305;SDS011;5708;50.660;6.778;2023-04-24T01:02:38;1.95;;;1.23;;
11305;SDS011;5708;50.660;6.778;2023-04-24T01:05:06;3.55;;;1.25;;
11305;SDS011;5708;50.660;6.778;2023-04-24T01:07:32;4.20;;;1.40;;
11305;SDS011;5708;50.660;6.778;2023-04-24T01:09:58;3.55;;;1.45;;
11305;SDS011;5708;50.660;6.778;2023-04-24T01:12:24;3.10;;;1.52;;
11305;SDS011;5708;50.660;6.778;2023-04-24T01:14:49;5.20;;;1.70;;
11305;SDS011;5708;50.660;6.778;2023-04-24T01:17:15;5.10;;;1.70;;
11305;SDS011;5708;50.660;6.778;2023-04-24T01:19:41;3.28;;;1.70;;
11305;SDS011;5708;50.660;6.778;2023-04-24T01:22:13;3.42;;;1.50;;
11305;SDS011;5708;50.660;6.778;2023-04-24T01:24:39;3.38;;;1.58;;
11305;SDS011;5708;50.660;6.778;2023-04-24T01:27:05;2.72;;;1.35;;
11305;SDS011;5708;50.660;6.778;2023-04-24T01:29:31;3.47;;;1.20;;
11305;SDS011;5708;50.660;6.778;2023-04-24T01:31:56;5.03;;;1.40;;
11305;SDS011;5708;50.660;6.778;2023-04-24T01:34:23;3.00;;;1.52;;
11305;SDS011;5708;50.660;6.778;2023-04-24T01:36:48;2.58;;;1.48;;
11305;SDS011;5708;50.660;6.778;2023-04-24T01:39:15;5.10;;;1.98;;
11305;SDS011;5708;50.660;6.778;2023-04-24T01:41:41;5.07;;;2.15;;
11305;SDS011;5708;50.660;6.778;2023-04-24T01:44:07;5.53;;;2.30;;
11305;SDS011;5708;50.660;6.778;2023-04-24T01:46:32;5.72;;;3.45;;
11305;SDS011;5708;50.660;6.778;2023-04-24T01:49:00;5.65;;;3.10;;
11305;SDS011;5708;50.660;6.778;2023-04-24T01:51:25;5.93;;;3.42;;
11305;SDS011;5708;50.660;6.778;2023-04-24T01:53:51;5.95;;;3.60;;
11305;SDS011;5708;50.660;6.778;2023-04-24T01:56:18;7.25;;;3.97;;
11305;SDS011;5708;50.660;6.778;2023-04-24T01:58:45;10.50;;;4.43;;
11305;SDS011;5708;50.660;6.778;2023-04-24T02:01:14;7.13;;;3.90;;
11305;SDS011;5708;50.660;6.778;2023-04-24T02:03:42;6.00;;;3.88;;
11305;SDS011;5708;50.660;6.778;2023-04-24T02:06:07;7.38;;;4.60;;
11305;SDS011;5708;50.660;6.778;2023-04-24T02:08:33;10.70;;;5.03;;
11305;SDS011;5708;50.660;6.778;2023-04-24T02:10:58;7.38;;;4.65;;
11305;SDS011;5708;50.660;6.778;2023-04-24T02:13:24;8.75;;;5.25;;
11305;SDS011;5708;50.660;6.778;2023-04-24T02:15:49;9.68;;;5.30;;
11305;SDS011;5708;50.660;6.778;2023-04-24T02:18:14;9.70;;;5.22;;
11305;SDS011;5708;50.660;6.778;2023-04-24T02:20:40;7.80;;;4.65;;
11305;SDS011;5708;50.660;6.778;2023-04-24T02:23:05;9.60;;;4.57;;
11305;SDS011;5708;50.660;6.778;2023-04-24T02:25:31;6.95;;;4.50;;
11305;SDS011;5708;50.660;6.778;2023-04-24T02:27:56;7.90;;;4.32;;
11305;SDS011;5708;50.660;6.778;2023-04-24T02:30:22;7.57;;;4.40;;
11305;SDS011;5708;50.660;6.778;2023-04-24T02:32:47;8.55;;;5.28;;
11305;SDS011;5708;50.660;6.778;2023-04-24T02:35:12;7.43;;;4.47;;
11305;SDS011;5708;50.660;6.778;2023-04-24T02:37:38;8.50;;;4.95;;
11305;SDS011;5708;50.660;6.778;2023-04-24T02:40:03;7.78;;;4.50;;
11305;SDS011;5708;50.660;6.778;2023-04-24T02:42:30;8.13;;;4.68;;
11305;SDS011;5708;50.660;6.778;2023-04-24T02:44:56;9.25;;;4.88;;
11305;SDS011;5708;50.660;6.778;2023-04-24T02:47:21;9.07;;;5.20;;
11305;SDS011;5708;50.660;6.778;2023-04-24T02:49:46;9.20;;;4.95;;
11305;SDS011;5708;50.660;6.778;2023-04-24T02:52:12;8.48;;;5.07;;
11305;SDS011;5708;50.660;6.778;2023-04-24T02:54:38;8.90;;;5.03;;
11305;SDS011;5708;50.660;6.778;2023-04-24T02:57:03;10.90;;;5.30;;
11305;SDS011;5708;50.660;6.778;2023-04-24T02:59:28;9.50;;;5.45;;
11305;SDS011;5708;50.660;6.778;2023-04-24T03:01:54;10.50;;;5.68;;
11305;SDS011;5708;50.660;6.778;2023-04-24T03:04:19;9.73;;;5.20;;
11305;SDS011;5708;50.660;6.778;2023-04-24T03:06:45;11.02;;;6.10;;
11305;SDS011;5708;50.660;6.778;2023-04-24T03:09:11;10.98;;;5.75;;
11305;SDS011;5708;50.660;6.778;2023-04-24T03:11:36;11.85;;;5.75;;
11305;SDS011;5708;50.660;6.778;2023-04-24T03:14:01;9.55;;;5.78;;
11305;SDS011;5708;50.660;6.778;2023-04-24T03:16:27;9.38;;;5.63;;
11305;SDS011;5708;50.660;6.778;2023-04-24T03:18:52;10.13;;;5.55;;
11305;SDS011;5708;50.660;6.778;2023-04-24T03:21:18;9.77;;;5.70;;
11305;SDS011;5708;50.660;6.778;2023-04-24T03:23:43;10.75;;;6.18;;
11305;SDS011;5708;50.660;6.778;2023-04-24T03:26:08;10.25;;;5.97;;
11305;SDS011;5708;50.660;6.778;2023-04-24T03:28:34;9.70;;;6.30;;
11305;SDS011;5708;50.660;6.778;2023-04-24T03:30:59;10.05;;;5.72;;
11305;SDS011;5708;50.660;6.778;2023-04-24T03:33:25;12.27;;;5.95;;
11305;SDS011;5708;50.660;6.778;2023-04-24T03:35:50;9.65;;;6.32;;
11305;SDS011;5708;50.660;6.778;2023-04-24T03:38:15;10.30;;;6.20;;
11305;SDS011;5708;50.660;6.778;2023-04-24T03:40:41;9.63;;;5.68;;
11305;SDS011;5708;50.660;6.778;2023-04-24T03:43:06;11.02;;;6.25;;
11305;SDS011;5708;50.660;6.778;2023-04-24T03:45:31;11.15;;;6.00;;
11305;SDS011;5708;50.660;6.778;2023-04-24T03:47:57;9.25;;;5.85;;
11305;SDS011;5708;50.660;6.778;2023-04-24T03:50:22;9.68;;;6.03;;
11305;SDS011;5708;50.660;6.778;2023-04-24T03:52:48;10.73;;;6.13;;
11305;SDS011;5708;50.660;6.778;2023-04-24T03:55:13;11.38;;;7.07;;
11305;SDS011;5708;50.660;6.778;2023-04-24T03:57:42;10.70;;;6.85;;
11305;SDS011;5708;50.660;6.778;2023-04-24T04:00:08;11.88;;;6.47;;
11305;SDS011;5708;50.660;6.778;2023-04-24T04:02:34;11.00;;;6.65;;
11305;SDS011;5708;50.660;6.778;2023-04-24T04:04:59;9.35;;;6.28;;
11305;SDS011;5708;50.660;6.778;2023-04-24T04:07:24;12.63;;;6.80;;
11305;SDS011;5708;50.660;6.778;2023-04-24T04:09:50;12.38;;;6.78;;
11305;SDS011;5708;50.660;6.778;2023-04-24T04:12:16;11.63;;;7.22;;
11305;SDS011;5708;50.660;6.778;2023-04-24T04:14:41;10.07;;;6.20;;
11305;SDS011;5708;50.660;6.778;2023-04-24T04:17:06;10.07;;;6.00;;
11305;SDS011;5708;50.660;6.778;2023-04-24T04:19:32;11.02;;;6.18;;
11305;SDS011;5708;50.660;6.778;2023-04-24T04:21:57;11.90;;;6.25;;
11305;SDS011;5708;50.660;6.778;2023-04-24T04:24:24;10.07;;;5.95;;
11305;SDS011;5708;50.660;6.778;2023-04-24T04:26:49;10.57;;;6.05;;
11305;SDS011;5708;50.660;6.778;2023-04-24T04:29:16;10.52;;;6.20;;
11305;SDS011;5708;50.660;6.778;2023-04-24T04:31:43;10.77;;;6.60;;
11305;SDS011;5708;50.660;6.778;2023-04-24T04:34:09;12.05;;;6.70;;
11305;SDS011;5708;50.660;6.778;2023-04-24T04:36:34;11.20;;;6.50;;
11305;SDS011;5708;50.660;6.778;2023-04-24T04:39:02;11.95;;;6.90;;
11305;SDS011;5708;50.660;6.778;2023-04-24T04:41:28;10.32;;;6.50;;
11305;SDS011;5708;50.660;6.778;2023-04-24T04:43:53;10.93;;;6.90;;
11305;SDS011;5708;50.660;6.778;2023-04-24T04:46:18;13.88;;;7.85;;
11305;SDS011;5708;50.660;6.778;2023-04-24T04:48:44;11.82;;;6.75;;
11305;SDS011;5708;50.660;6.778;2023-04-24T04:51:10;13.43;;;6.45;;
11305;SDS011;5708;50.660;6.778;2023-04-24T04:53:36;13.07;;;7.10;;
11305;SDS011;5708;50.660;6.778;2023-04-24T04:56:01;12.15;;;6.88;;
11305;SDS011;5708;50.660;6.778;2023-04-24T04:58:26;11.95;;;6.88;;
11305;SDS011;5708;50.660;6.778;2023-04-24T05:00:52;11.48;;;6.15;;
11305;SDS011;5708;50.660;6.778;2023-04-24T05:03:18;11.05;;;7.00;;
11305;SDS011;5708;50.660;6.778;2023-04-24T05:05:43;11.10;;;6.35;;
11305;SDS011;5708;50.660;6.778;2023-04-24T05:08:08;10.05;;;6.55;;
11305;SDS011;5708;50.660;6.778;2023-04-24T05:10:34;11.15;;;6.85;;
11305;SDS011;5708;50.660;6.778;2023-04-24T05:12:59;11.20;;;6.32;;
11305;SDS011;5708;50.660;6.778;2023-04-24T05:15:25;12.82;;;6.60;;
11305;SDS011;5708;50.660;6.778;2023-04-24T05:17:51;10.82;;;6.85;;
11305;SDS011;5708;50.660;6.778;2023-04-24T05:20:16;10.02;;;6.15;;
11305;SDS011;5708;50.660;6.778;2023-04-24T05:22:42;11.40;;;6.68;;
11305;SDS011;5708;50.660;6.778;2023-04-24T05:25:08;10.50;;;6.50;;
11305;SDS011;5708;50.660;6.778;2023-04-24T05:27:33;9.85;;;6.28;;
11305;SDS011;5708;50.660;6.778;2023-04-24T05:29:59;12.90;;;5.82;;
11305;SDS011;5708;50.660;6.778;2023-04-24T05:32:24;11.60;;;6.00;;
11305;SDS011;5708;50.660;6.778;2023-04-24T05:34:50;10.07;;;5.80;;
11305;SDS011;5708;50.660;6.778;2023-04-24T05:37:16;9.32;;;5.28;;
11305;SDS011;5708;50.660;6.778;2023-04-24T05:39:41;11.50;;;5.70;;
11305;SDS011;5708;50.660;6.778;2023-04-24T05:42:06;10.48;;;5.38;;
11305;SDS011;5708;50.660;6.778;2023-04-24T05:44:32;9.30;;;5.40;;
11305;SDS011;5708;50.660;6.778;2023-04-24T05:46:57;9.68;;;5.40;;
11305;SDS011;5708;50.660;6.778;2023-04-24T05:49:23;9.23;;;5.90;;
11305;SDS011;5708;50.660;6.778;2023-04-24T05:51:48;8.82;;;5.55;;
11305;SDS011;5708;50.660;6.778;2023-04-24T05:54:13;8.35;;;5.40;;
11305;SDS011;5708;50.660;6.778;2023-04-24T05:56:39;8.32;;;4.80;;
11305;SDS011;5708;50.660;6.778;2023-04-24T05:59:05;9.57;;;4.88;;
11305;SDS011;5708;50.660;6.778;2023-04-24T06:01:30;9.38;;;5.07;;
11305;SDS011;5708;50.660;6.778;2023-04-24T06:03:56;8.13;;;4.65;;
11305;SDS011;5708;50.660;6.778;2023-04-24T06:06:21;7.32;;;4.47;;
11305;SDS011;5708;50.660;6.778;2023-04-24T06:08:47;6.80;;;4.53;;
11305;SDS011;5708;50.660;6.778;2023-04-24T06:11:12;7.38;;;4.40;;
11305;SDS011;5708;50.660;6.778;2023-04-24T06:13:38;8.73;;;4.13;;
11305;SDS011;5708;50.660;6.778;2023-04-24T06:16:04;6.18;;;3.80;;
11305;SDS011;5708;50.660;6.778;2023-04-24T06:18:30;9.18;;;4.97;;
11305;SDS011;5708;50.660;6.778;2023-04-24T06:20:55;7.03;;;3.90;;
11305;SDS011;5708;50.660;6.778;2023-04-24T06:23:20;6.30;;;3.72;;
11305;SDS011;5708;50.660;6.778;2023-04-24T06:25:46;8.68;;;3.75;;
11305;SDS011;5708;50.660;6.778;2023-04-24T06:28:12;6.75;;;3.53;;
11305;SDS011;5708;50.660;6.778;2023-04-24T06:30:37;5.15;;;3.20;;
11305;SDS011;5708;50.660;6.778;2023-04-24T06:33:02;5.80;;;2.80;;
11305;SDS011;5708;50.660;6.778;2023-04-24T06:35:28;5.22;;;2.70;;
11305;SDS011;5708;50.660;6.778;2023-04-24T06:37:53;6.65;;;2.85;;
11305;SDS011;5708;50.660;6.778;2023-04-24T06:40:21;5.35;;;2.70;;
11305;SDS011;5708;50.660;6.778;2023-04-24T06:42:46;4.15;;;2.15;;
11305;SDS011;5708;50.660;6.778;2023-04-24T06:45:11;3.97;;;2.33;;
11305;SDS011;5708;50.660;6.778;2023-04-24T06:47:37;4.05;;;1.92;;
11305;SDS011;5708;50.660;6.778;2023-04-24T06:50:03;3.67;;;1.80;;
11305;SDS011;5708;50.660;6.778;2023-04-24T06:52:28;3.40;;;2.13;;
11305;SDS011;5708;50.660;6.778;2023-04-24T06:55:01;3.53;;;1.95;;
11305;SDS011;5708;50.660;6.778;2023-04-24T06:57:27;4.22;;;1.80;;
11305;SDS011;5708;50.660;6.778;2023-04-24T06:59:52;4.22;;;2.08;;
11305;SDS011;5708;50.660;6.778;2023-04-24T07:02:18;3.50;;;2.00;;
11305;SDS011;5708;50.660;6.778;2023-04-24T07:04:43;3.80;;;2.03;;
11305;SDS011;5708;50.660;6.778;2023-04-24T07:07:09;3.60;;;1.80;;
11305;SDS011;5708;50.660;6.778;2023-04-24T07:09:37;3.67;;;1.83;;
11305;SDS011;5708;50.660;6.778;2023-04-24T07:12:05;3.55;;;1.80;;
11305;SDS011;5708;50.660;6.778;2023-04-24T07:14:32;2.75;;;1.48;;
11305;SDS011;5708;50.660;6.778;2023-04-24T07:16:58;3.38;;;1.58;;
11305;SDS011;5708;50.660;6.778;2023-04-24T07:19:23;3.30;;;1.77;;
11305;SDS011;5708;50.660;6.778;2023-04-24T07:21:49;2.22;;;1.33;;
11305;SDS011;5708;50.660;6.778;2023-04-24T07:24:14;4.60;;;1.70;;
11305;SDS011;5708;50.660;6.778;2023-04-24T07:26:40;4.18;;;1.73;;
11305;SDS011;5708;50.660;6.778;2023-04-24T07:29:05;3.47;;;1.58;;
11305;SDS011;5708;50.660;6.778;2023-04-24T07:31:31;2.92;;;1.50;;
11305;SDS011;5708;50.660;6.778;2023-04-24T07:33:57;4.28;;;1.50;;
11305;SDS011;5708;50.660;6.778;2023-04-24T07:36:23;3.55;;;1.45;;
11305;SDS011;5708;50.660;6.778;2023-04-24T07:38:49;1.38;;;1.00;;
11305;SDS011;5708;50.660;6.778;2023-04-24T07:41:15;1.40;;;0.95;;
11305;SDS011;5708;50.660;6.778;2023-04-24T07:43:40;1.00;;;0.60;;
11305;SDS011;5708;50.660;6.778;2023-04-24T07:46:07;1.80;;;0.80;;
11305;SDS011;5708;50.660;6.778;2023-04-24T07:48:32;1.38;;;0.80;;
11305;SDS011;5708;50.660;6.778;2023-04-24T07:50:58;1.70;;;0.80;;
11305;SDS011;5708;50.660;6.778;2023-04-24T07:53:23;1.33;;;0.80;;
11305;SDS011;5708;50.660;6.778;2023-04-24T07:55:49;2.20;;;1.60;;
11305;SDS011;5708;50.660;6.778;2023-04-24T07:58:14;3.50;;;1.90;;
11305;SDS011;5708;50.660;6.778;2023-04-24T08:00:40;3.55;;;2.00;;
11305;SDS011;5708;50.660;6.778;2023-04-24T08:03:05;2.47;;;1.48;;
11305;SDS011;5708;50.660;6.778;2023-04-24T08:05:30;3.33;;;1.90;;
11305;SDS011;5708;50.660;6.778;2023-04-24T08:07:56;3.60;;;2.10;;
11305;SDS011;5708;50.660;6.778;2023-04-24T08:10:22;2.55;;;1.52;;
11305;SDS011;5708;50.660;6.778;2023-04-24T08:12:48;2.88;;;1.50;;
11305;SDS011;5708;50.660;6.778;2023-04-24T08:15:13;1.63;;;1.20;;
11305;SDS011;5708;50.660;6.778;2023-04-24T08:17:39;2.70;;;1.20;;
11305;SDS011;5708;50.660;6.778;2023-04-24T08:20:04;1.77;;;1.00;;
11305;SDS011;5708;50.660;6.778;2023-04-24T08:22:31;2.55;;;1.67;;
11305;SDS011;5708;50.660;6.778;2023-04-24T08:24:56;3.25;;;1.60;;
11305;SDS011;5708;50.660;6.778;2023-04-24T08:27:22;2.95;;;1.65;;
11305;SDS011;5708;50.660;6.778;2023-04-24T08:29:48;2.38;;;1.67;;
11305;SDS011;5708;50.660;6.778;2023-04-24T08:32:14;3.42;;;1.80;;
11305;SDS011;5708;50.660;6.778;2023-04-24T08:34:40;3.88;;;2.03;;
11305;SDS011;5708;50.660;6.778;2023-04-24T08:37:05;3.78;;;1.75;;
11305;SDS011;5708;50.660;6.778;2023-04-24T08:39:31;3.72;;;1.80;;
11305;SDS011;5708;50.660;6.778;2023-04-24T08:41:56;3.45;;;1.85;;
11305;SDS011;5708;50.660;6.778;2023-04-24T08:44:21;3.25;;;1.65;;
11305;SDS011;5708;50.660;6.778;2023-04-24T08:46:47;3.28;;;1.65;;
11305;SDS011;5708;50.660;6.778;2023-04-24T08:49:13;1.73;;;1.30;;
11305;SDS011;5708;50.660;6.778;2023-04-24T08:51:41;2.90;;;1.60;;
11305;SDS011;5708;50.660;6.778;2023-04-24T08:54:07;3.83;;;1.95;;
11305;SDS011;5708;50.660;6.778;2023-04-24T08:56:33;2.72;;;1.92;;
11305;SDS011;5708;50.660;6.778;2023-04-24T08:58:59;5.20;;;2.30;;
11305;SDS011;5708;50.660;6.778;2023-04-24T09:01:24;4.55;;;1.60;;
11305;SDS011;5708;50.660;6.778;2023-04-24T09:03:50;3.10;;;1.70;;
11305;SDS011;5708;50.660;6.778;2023-04-24T09:06:17;4.15;;;2.00;;
11305;SDS011;5708;50.660;6.778;2023-04-24T09:08:43;3.70;;;2.08;;
11305;SDS011;5708;50.660;6.778;2023-04-24T09:11:09;3.63;;;2.17;;
11305;SDS011;5708;50.660;6.778;2023-04-24T09:13:35;3.60;;;1.70;;
11305;SDS011;5708;50.660;6.778;2023-04-24T09:16:00;3.85;;;1.95;;
11305;SDS011;5708;50.660;6.778;2023-04-24T09:18:26;2.67;;;1.60;;
11305;SDS011;5708;50.660;6.778;2023-04-24T09:23:26;3.80;;;2.00;;
11305;SDS011;5708;50.660;6.778;2023-04-24T09:25:54;3.08;;;1.83;;
11305;SDS011;5708;50.660;6.778;2023-04-24T09:28:22;3.50;;;2.10;;
11305;SDS011;5708;50.660;6.778;2023-04-24T09:31:01;2.75;;;1.83;;
11305;SDS011;5708;50.660;6.778;2023-04-24T09:33:54;3.55;;;2.25;;
11305;SDS011;5708;50.660;6.778;2023-04-24T09:36:32;3.97;;;2.40;;
11305;SDS011;5708;50.660;6.778;2023-04-24T09:39:03;5.65;;;2.58;;
11305;SDS011;5708;50.660;6.778;2023-04-24T09:41:31;5.00;;;2.60;;
11305;SDS011;5708;50.660;6.778;2023-04-24T09:43:57;5.97;;;2.88;;
11305;SDS011;5708;50.660;6.778;2023-04-24T09:46:35;5.47;;;3.00;;
11305;SDS011;5708;50.660;6.778;2023-04-24T09:49:10;9.93;;;4.00;;
11305;SDS011;5708;50.660;6.778;2023-04-24T09:51:40;7.18;;;3.75;;
11305;SDS011;5708;50.660;6.778;2023-04-24T09:54:19;8.45;;;4.22;;
11305;SDS011;5708;50.660;6.778;2023-04-24T09:56:46;7.40;;;4.32;;
11305;SDS011;5708;50.660;6.778;2023-04-24T09:59:16;7.25;;;3.78;;
11305;SDS011;5708;50.660;6.778;2023-04-24T10:01:43;7.60;;;4.13;;
11305;SDS011;5708;50.660;6.778;2023-04-24T10:04:16;8.48;;;4.47;;
11305;SDS011;5708;50.660;6.778;2023-04-24T10:06:43;7.53;;;4.00;;
11305;SDS011;5708;50.660;6.778;2023-04-24T10:09:12;6.82;;;3.90;;
11305;SDS011;5708;50.660;6.778;2023-04-24T10:11:41;9.02;;;4.88;;
11305;SDS011;5708;50.660;6.778;2023-04-24T10:14:09;8.73;;;4.60;;
11305;SDS011;5708;50.660;6.778;2023-04-24T10:16:35;8.45;;;4.15;;
11305;SDS011;5708;50.660;6.778;2023-04-24T10:19:01;8.32;;;4.45;;
11305;SDS011;5708;50.660;6.778;2023-04-24T10:21:28;9.43;;;4.72;;
11305;SDS011;5708;50.660;6.778;2023-04-24T10:23:53;8.98;;;4.80;;
11305;SDS011;5708;50.660;6.778;2023-04-24T10:26:19;10.75;;;5.22;;
11305;SDS011;5708;50.660;6.778;2023-04-24T10:28:45;11.45;;;5.75;;
11305;SDS011;5708;50.660;6.778;2023-04-24T10:31:11;12.82;;;5.82;;
11305;SDS011;5708;50.660;6.778;2023-04-24T10:33:38;9.63;;;4.60;;
11305;SDS011;5708;50.660;6.778;2023-04-24T10:36:06;10.43;;;4.28;;
11305;SDS011;5708;50.660;6.778;2023-04-24T10:38:33;10.40;;;4.75;;
11305;SDS011;5708;50.660;6.778;2023-04-24T10:41:09;10.40;;;4.25;;
11305;SDS011;5708;50.660;6.778;2023-04-24T10:43:40;8.20;;;3.78;;
11305;SDS011;5708;50.660;6.778;2023-04-24T10:46:06;8.95;;;3.70;;
11305;SDS011;5708;50.660;6.778;2023-04-24T10:48:33;9.93;;;3.80;;
11305;SDS011;5708;50.660;6.778;2023-04-24T10:50:58;12.35;;;4.03;;
11305;SDS011;5708;50.660;6.778;2023-04-24T10:53:25;7.15;;;3.83;;
11305;SDS011;5708;50.660;6.778;2023-04-24T10:56:06;8.50;;;4.07;;
11305;SDS011;5708;50.660;6.778;2023-04-24T11:03:57;7.45;;;4.32;;
11305;SDS011;5708;50.660;6.778;2023-04-24T11:06:28;7.93;;;3.70;;
11305;SDS011;5708;50.660;6.778;2023-04-24T11:08:59;7.25;;;3.17;;
11305;SDS011;5708;50.660;6.778;2023-04-24T11:11:31;7.80;;;3.38;;
11305;SDS011;5708;50.660;6.778;2023-04-24T11:19:09;7.22;;;3.17;;
11305;SDS011;5708;50.660;6.778;2023-04-24T11:22:03;7.97;;;3.30;;
11305;SDS011;5708;50.660;6.778;2023-04-24T11:32:36;6.40;;;3.28;;
11305;SDS011;5708;50.660;6.778;2023-04-24T11:39:58;8.02;;;3.60;;
11305;SDS011;5708;50.660;6.778;2023-04-24T11:42:24;6.40;;;3.88;;
11305;SDS011;5708;50.660;6.778;2023-04-24T11:44:51;8.70;;;4.03;;
11305;SDS011;5708;50.660;6.778;2023-04-24T11:47:17;10.10;;;4.65;;
11305;SDS011;5708;50.660;6.778;2023-04-24T11:49:43;11.45;;;5.75;;
11305;SDS011;5708;50.660;6.778;2023-04-24T11:52:09;11.63;;;5.70;;
11305;SDS011;5708;50.660;6.778;2023-04-24T11:54:35;13.23;;;6.38;;
11305;SDS011;5708;50.660;6.778;2023-04-24T11:57:03;11.05;;;5.60;;
11305;SDS011;5708;50.660;6.778;2023-04-24T11:59:34;12.32;;;5.90;;
11305;SDS011;5708;50.660;6.778;2023-04-24T12:02:00;12.23;;;6.07;;
11305;SDS011;5708;50.660;6.778;2023-04-24T12:04:26;14.60;;;5.95;;
11305;SDS011;5708;50.660;6.778;2023-04-24T12:07:01;11.70;;;5.85;;
11305;SDS011;5708;50.660;6.778;2023-04-24T12:09:27;10.63;;;5.45;;
11305;SDS011;5708;50.660;6.778;2023-04-24T12:11:56;14.23;;;6.40;;
11305;SDS011;5708;50.660;6.778;2023-04-24T12:14:24;11.85;;;4.93;;
11305;SDS011;5708;50.660;6.778;2023-04-24T12:16:50;12.68;;;5.68;;
11305;SDS011;5708;50.660;6.778;2023-04-24T12:19:22;11.43;;;5.63;;
11305;SDS011;5708;50.660;6.778;2023-04-24T12:22:01;14.30;;;4.93;;
11305;SDS011;5708;50.660;6.778;2023-04-24T12:24:28;9.32;;;4.25;;
11305;SDS011;5708;50.660;6.778;2023-04-24T12:26:54;10.13;;;4.57;;
11305;SDS011;5708;50.660;6.778;2023-04-24T12:29:22;10.52;;;4.40;;
11305;SDS011;5708;50.660;6.778;2023-04-24T12:31:48;10.38;;;4.55;;
11305;SDS011;5708;50.660;6.778;2023-04-24T12:34:21;14.18;;;5.05;;
11305;SDS011;5708;50.660;6.778;2023-04-24T12:36:47;9.68;;;4.15;;
11305;SDS011;5708;50.660;6.778;2023-04-24T12:41:54;12.60;;;4.80;;
11305;SDS011;5708;50.660;6.778;2023-04-24T12:44:28;15.13;;;5.90;;
11305;SDS011;5708;50.660;6.778;2023-04-24T12:46:55;13.27;;;5.55;;
11305;SDS011;5708;50.660;6.778;2023-04-24T12:49:20;11.27;;;6.13;;
11305;SDS011;5708;50.660;6.778;2023-04-24T12:51:45;11.43;;;6.10;;
11305;SDS011;5708;50.660;6.778;2023-04-24T12:54:11;14.65;;;6.35;;
11305;SDS011;5708;50.660;6.778;2023-04-24T12:56:36;11.50;;;5.85;;
11305;SDS011;5708;50.660;6.778;2023-04-24T12:59:04;12.25;;;6.20;;
11305;SDS011;5708;50.660;6.778;2023-04-24T13:01:30;12.15;;;6.05;;
11305;SDS011;5708;50.660;6.778;2023-04-24T13:03:55;9.05;;;6.13;;
11305;SDS011;5708;50.660;6.778;2023-04-24T13:06:21;15.10;;;5.97;;
11305;SDS011;5708;50.660;6.778;2023-04-24T13:08:46;14.35;;;6.03;;
11305;SDS011;5708;50.660;6.778;2023-04-24T13:11:13;13.57;;;5.97;;
11305;SDS011;5708;50.660;6.778;2023-04-24T13:13:39;12.10;;;5.25;;
11305;SDS011;5708;50.660;6.778;2023-04-24T13:16:04;11.43;;;5.20;;
11305;SDS011;5708;50.660;6.778;2023-04-24T13:18:30;8.85;;;5.18;;
11305;SDS011;5708;50.660;6.778;2023-04-24T13:20:55;14.45;;;6.00;;
11305;SDS011;5708;50.660;6.778;2023-04-24T13:23:21;15.02;;;5.40;;
11305;SDS011;5708;50.660;6.778;2023-04-24T13:25:47;10.60;;;5.55;;
11305;SDS011;5708;50.660;6.778;2023-04-24T13:28:13;12.68;;;5.80;;
11305;SDS011;5708;50.660;6.778;2023-04-24T13:30:38;9.68;;;4.97;;
11305;SDS011;5708;50.660;6.778;2023-04-24T13:33:04;11.43;;;4.88;;
11305;SDS011;5708;50.660;6.778;2023-04-24T13:35:29;8.82;;;4.60;;
11305;SDS011;5708;50.660;6.778;2023-04-24T13:37:55;11.48;;;5.20;;
11305;SDS011;5708;50.660;6.778;2023-04-24T13:40:20;10.23;;;5.25;;
11305;SDS011;5708;50.660;6.778;2023-04-24T13:42:46;11.20;;;4.78;;
11305;SDS011;5708;50.660;6.778;2023-04-24T13:45:11;10.52;;;4.63;;
11305;SDS011;5708;50.660;6.778;2023-04-24T13:47:36;9.30;;;4.97;;
11305;SDS011;5708;50.660;6.778;2023-04-24T13:50:02;12.20;;;4.60;;
11305;SDS011;5708;50.660;6.778;2023-04-24T13:52:27;7.28;;;3.85;;
11305;SDS011;5708;50.660;6.778;2023-04-24T13:54:53;11.80;;;4.65;;
11305;SDS011;5708;50.660;6.778;2023-04-24T13:57:18;9.88;;;4.63;;
11305;SDS011;5708;50.660;6.778;2023-04-24T13:59:44;12.55;;;5.03;;
11305;SDS011;5708;50.660;6.778;2023-04-24T14:02:10;8.27;;;4.43;;
11305;SDS011;5708;50.660;6.778;2023-04-24T14:04:35;10.40;;;5.00;;
11305;SDS011;5708;50.660;6.778;2023-04-24T14:07:01;8.77;;;4.90;;
11305;SDS011;5708;50.660;6.778;2023-04-24T14:09:29;9.20;;;4.90;;
11305;SDS011;5708;50.660;6.778;2023-04-24T14:11:55;9.43;;;4.70;;
11305;SDS011;5708;50.660;6.778;2023-04-24T14:14:20;10.48;;;4.45;;
11305;SDS011;5708;50.660;6.778;2023-04-24T14:16:46;10.63;;;4.65;;
11305;SDS011;5708;50.660;6.778;2023-04-24T14:19:11;8.88;;;4.60;;
11305;SDS011;5708;50.660;6.778;2023-04-24T14:21:37;9.45;;;4.75;;
11305;SDS011;5708;50.660;6.778;2023-04-24T14:24:02;10.10;;;4.60;;
11305;SDS011;5708;50.660;6.778;2023-04-24T14:26:28;8.68;;;4.75;;
11305;SDS011;5708;50.660;6.778;2023-04-24T14:28:53;8.80;;;4.63;;
11305;SDS011;5708;50.660;6.778;2023-04-24T14:31:19;9.90;;;4.63;;
11305;SDS011;5708;50.660;6.778;2023-04-24T14:33:45;9.75;;;4.88;;
11305;SDS011;5708;50.660;6.778;2023-04-24T14:36:10;8.73;;;4.78;;
11305;SDS011;5708;50.660;6.778;2023-04-24T14:38:36;10.90;;;5.00;;
11305;SDS011;5708;50.660;6.778;2023-04-24T14:41:01;12.07;;;5.13;;
11305;SDS011;5708;50.660;6.778;2023-04-24T14:43:33;12.38;;;5.15;;
11305;SDS011;5708;50.660;6.778;2023-04-24T14:46:00;8.55;;;4.70;;
11305;SDS011;5708;50.660;6.778;2023-04-24T14:48:25;7.43;;;4.65;;
11305;SDS011;5708;50.660;6.778;2023-04-24T14:50:50;10.13;;;5.18;;
11305;SDS011;5708;50.660;6.778;2023-04-24T14:53:16;15.02;;;5.45;;
11305;SDS011;5708;50.660;6.778;2023-04-24T14:55:41;10.80;;;5.30;;
11305;SDS011;5708;50.660;6.778;2023-04-24T14:58:07;11.23;;;5.40;;
11305;SDS011;5708;50.660;6.778;2023-04-24T15:00:32;12.25;;;5.60;;
11305;SDS011;5708;50.660;6.778;2023-04-24T15:02:57;10.65;;;4.90;;
11305;SDS011;5708;50.660;6.778;2023-04-24T15:05:23;10.57;;;4.40;;
11305;SDS011;5708;50.660;6.778;2023-04-24T15:07:49;11.75;;;4.65;;
11305;SDS011;5708;50.660;6.778;2023-04-24T15:10:15;11.95;;;4.97;;
11305;SDS011;5708;50.660;6.778;2023-04-24T15:12:42;11.07;;;4.78;;
11305;SDS011;5708;50.660;6.778;2023-04-24T15:15:08;9.23;;;4.82;;
11305;SDS011;5708;50.660;6.778;2023-04-24T15:17:33;12.02;;;5.57;;
11305;SDS011;5708;50.660;6.778;2023-04-24T15:19:59;9.82;;;5.25;;